createdAt,value
2022-10-21T00:01:00.770Z,86.88
2022-10-21T00:03:40.078Z,87.01
2022-10-21T00:06:10.864Z,87.11
2022-10-21T00:08:40.498Z,87.07
2022-10-21T00:11:10.514Z,86.96
2022-10-21T00:13:39.980Z,86.84
2022-10-21T00:16:16.318Z,86.76
2022-10-21T00:18:49.422Z,86.63
2022-10-21T00:21:22.307Z,86.51
2022-10-21T00:23:50.291Z,86.37
2022-10-21T00:26:21.913Z,86.25
2022-10-21T00:28:51.736Z,86.05
2022-10-21T00:31:19.346Z,85.81
2022-10-21T00:33:46.989Z,85.61
2022-10-21T00:36:16.232Z,85.45
2022-10-21T00:38:48.547Z,85.29
2022-10-21T00:41:19.408Z,85.09
2022-10-21T00:43:59.186Z,84.90
2022-10-21T00:46:41.371Z,84.73
2022-10-21T00:49:23.276Z,84.50
2022-10-21T00:51:57.448Z,84.49
2022-10-21T00:54:28.298Z,84.58
2022-10-21T00:56:58.474Z,84.65
2022-10-21T00:59:32.329Z,84.68
2022-10-21T01:02:00.912Z,84.68
2022-10-21T01:04:29.581Z,84.69
2022-10-21T01:07:00.559Z,84.61
2022-10-21T01:09:30.455Z,84.51
2022-10-21T01:12:02.908Z,84.43
2022-10-21T01:14:55.933Z,84.34
2022-10-21T01:17:51.453Z,84.19
2022-10-21T01:20:30.485Z,84.15
2022-10-21T01:23:35.615Z,84.10
2022-10-21T01:26:25.392Z,83.97
2022-10-21T01:29:18.716Z,83.91
2022-10-21T01:32:06.858Z,83.95
2022-10-21T01:35:03.926Z,83.94
2022-10-21T01:37:57.838Z,83.86
2022-10-21T01:40:55.818Z,83.87
2022-10-21T01:43:29.674Z,84.01
2022-10-21T01:46:27.136Z,84.09
2022-10-21T01:49:11.912Z,84.21
2022-10-21T01:51:40.729Z,84.23
2022-10-21T01:54:17.074Z,84.13
2022-10-21T01:56:49.166Z,84.06
2022-10-21T01:59:20.945Z,84.02
2022-10-21T02:01:52.476Z,84.05
2022-10-21T02:04:24.644Z,83.95
2022-10-21T02:06:52.325Z,83.82
2022-10-21T02:09:20.714Z,83.74
2022-10-21T02:11:54.937Z,83.65
2022-10-21T02:14:33.032Z,83.55
2022-10-21T02:17:01.966Z,83.36
2022-10-21T02:22:10.573Z,83.18
2022-10-21T02:24:57.130Z,83.15
2022-10-21T02:27:24.925Z,83.09
2022-10-21T02:29:59.410Z,83.09
2022-10-21T02:32:33.217Z,83.12
2022-10-21T02:35:27.358Z,83.08
2022-10-21T02:38:15.654Z,83.09
2022-10-21T02:41:05.349Z,83.09
2022-10-21T02:43:47.974Z,83.06
2022-10-21T02:46:15.977Z,83.07
2022-10-21T02:48:48.594Z,83.10
2022-10-21T02:51:17.715Z,83.15
2022-10-21T02:53:46.571Z,83.19
2022-10-21T02:56:15.483Z,83.14
2022-10-21T02:58:43.319Z,83.11
2022-10-21T03:01:11.114Z,83.12
2022-10-21T03:03:38.800Z,83.17
2022-10-21T03:06:08.463Z,83.17
2022-10-21T03:08:36.523Z,83.19
2022-10-21T03:11:05.463Z,83.23
2022-10-21T03:13:34.336Z,83.22
2022-10-21T03:16:02.031Z,83.19
2022-10-21T03:18:29.722Z,83.13
2022-10-21T03:20:57.531Z,83.19
2022-10-21T03:23:25.222Z,83.43
2022-10-21T03:25:52.972Z,83.52
2022-10-21T03:28:20.688Z,83.67
2022-10-21T03:30:49.640Z,83.71
2022-10-21T03:33:18.491Z,83.93
2022-10-21T03:35:46.284Z,84.10
2022-10-21T03:38:15.050Z,84.20
2022-10-21T03:40:42.923Z,84.26
2022-10-21T03:43:10.648Z,84.37
2022-10-21T03:45:38.439Z,84.53
2022-10-21T03:48:06.201Z,84.56
2022-10-21T03:50:34.039Z,84.63
2022-10-21T03:53:09.962Z,84.76
2022-10-21T03:55:42.498Z,84.84
2022-10-21T03:58:10.207Z,84.95
2022-10-21T04:00:38.233Z,84.90
2022-10-21T04:03:05.878Z,84.89
2022-10-21T04:05:33.799Z,84.84
2022-10-21T04:08:02.731Z,84.80
2022-10-21T04:10:30.440Z,84.77
2022-10-21T04:12:58.255Z,84.71
2022-10-21T04:15:29.002Z,84.66
2022-10-21T04:17:56.964Z,84.63
2022-10-21T04:20:24.716Z,84.61
2022-10-21T04:22:53.626Z,84.62
2022-10-21T04:25:21.518Z,84.60
2022-10-21T04:27:49.420Z,84.56
2022-10-21T04:30:17.421Z,84.51
2022-10-21T04:32:45.193Z,84.46
2022-10-21T04:35:15.501Z,84.37
2022-10-21T04:37:44.435Z,84.30
2022-10-21T04:40:12.157Z,84.20
2022-10-21T04:42:41.379Z,84.09
2022-10-21T04:45:11.576Z,84.10
2022-10-21T04:47:39.418Z,84.02
2022-10-21T04:50:10.794Z,83.91
2022-10-21T04:52:40.980Z,83.78
2022-10-21T04:55:09.245Z,83.60
2022-10-21T04:57:36.957Z,83.49
2022-10-21T05:00:07.738Z,83.41
2022-10-21T05:02:35.600Z,83.37
2022-10-21T05:05:04.702Z,83.30
2022-10-21T05:07:32.414Z,83.21
2022-10-21T05:10:00.067Z,83.12
2022-10-21T05:12:27.814Z,83.05
2022-10-21T05:14:55.615Z,82.96
2022-10-21T05:17:25.138Z,82.93
2022-10-21T05:19:52.858Z,82.86
2022-10-21T05:22:20.631Z,82.80
2022-10-21T05:24:50.695Z,82.77
2022-10-21T05:27:19.969Z,82.82
2022-10-21T05:29:47.678Z,82.85
2022-10-21T05:32:17.668Z,82.87
2022-10-21T05:34:45.412Z,82.92
2022-10-21T05:37:13.363Z,82.96
2022-10-21T05:39:43.122Z,83.00
2022-10-21T05:42:10.834Z,83.04
2022-10-21T05:44:38.672Z,83.06
2022-10-21T05:47:06.469Z,83.07
2022-10-21T05:49:34.198Z,83.08
2022-10-21T05:52:03.402Z,83.09
2022-10-21T05:54:31.291Z,83.12
2022-10-21T05:56:58.941Z,83.13
2022-10-21T05:59:28.546Z,83.15
2022-10-21T06:01:56.303Z,83.11
2022-10-21T06:04:26.400Z,83.09
2022-10-21T06:06:58.992Z,83.08
2022-10-21T06:09:26.740Z,83.04
2022-10-21T06:11:58.735Z,83.03
2022-10-21T06:14:27.809Z,83.01
2022-10-21T06:16:57.809Z,83.00
2022-10-21T06:19:25.449Z,82.97
2022-10-21T06:21:55.204Z,82.96
2022-10-21T06:24:23.019Z,82.96
2022-10-21T06:26:51.880Z,82.97
2022-10-21T06:29:19.617Z,82.98
2022-10-21T06:31:47.318Z,83.02
2022-10-21T06:36:46.557Z,83.08
2022-10-21T06:39:14.303Z,83.11
2022-10-21T06:41:42.044Z,83.10
2022-10-21T06:44:09.730Z,83.09
2022-10-21T06:46:39.511Z,83.09
2022-10-21T06:49:07.249Z,83.09
2022-10-21T06:51:34.992Z,83.09
2022-10-21T06:54:02.688Z,83.09
2022-10-21T06:56:32.893Z,83.08
2022-10-21T06:59:02.766Z,83.06
2022-10-21T07:01:48.497Z,83.05
2022-10-21T07:04:25.332Z,83.07
2022-10-21T07:06:54.414Z,83.09
2022-10-21T07:09:22.209Z,83.09
2022-10-21T07:11:49.993Z,83.07
2022-10-21T07:14:17.671Z,83.06
2022-10-21T07:16:45.438Z,83.04
2022-10-21T07:19:16.497Z,82.99
2022-10-21T07:21:45.541Z,82.97
2022-10-21T07:24:13.249Z,82.90
2022-10-21T07:26:42.268Z,82.83
2022-10-21T07:29:10.240Z,82.81
2022-10-21T07:31:39.634Z,82.75
2022-10-21T07:34:12.371Z,82.73
2022-10-21T07:36:48.912Z,82.83
2022-10-21T07:39:22.482Z,82.82
2022-10-21T07:41:57.835Z,82.78
2022-10-21T07:44:26.711Z,82.75
2022-10-21T07:46:54.836Z,82.72
2022-10-21T07:49:24.508Z,82.71
2022-10-21T07:51:53.315Z,82.68
2022-10-21T07:54:22.263Z,82.64
2022-10-21T07:56:53.035Z,82.58
2022-10-21T07:59:22.257Z,82.57
2022-10-21T08:01:54.080Z,82.51
2022-10-21T08:04:25.976Z,82.47
2022-10-21T08:06:53.671Z,82.35
2022-10-21T08:09:23.196Z,82.22
2022-10-21T08:11:50.879Z,81.98
2022-10-21T08:14:18.655Z,80.40
2022-10-21T08:16:46.454Z,78.98
2022-10-21T08:19:19.755Z,76.84
2022-10-21T08:21:47.638Z,75.50
2022-10-21T08:24:15.634Z,73.44
2022-10-21T08:26:45.985Z,72.33
2022-10-21T08:29:13.637Z,71.60
2022-10-21T08:31:41.441Z,71.44
2022-10-21T08:34:10.790Z,69.40
2022-10-21T08:36:39.662Z,69.12
2022-10-21T08:39:07.908Z,67.09
2022-10-21T08:42:14.635Z,66.54
2022-10-21T08:44:59.811Z,67.17
2022-10-21T08:47:46.030Z,66.39
2022-10-21T08:50:25.852Z,63.29
2022-10-21T08:53:21.319Z,62.88
2022-10-21T08:55:56.054Z,58.49
2022-10-21T08:58:25.562Z,59.51
2022-10-21T09:01:23.499Z,56.92
2022-10-21T09:04:11.269Z,51.66
2022-10-21T09:07:09.919Z,48.87
2022-10-21T09:09:54.412Z,44.98
2022-10-21T09:12:44.928Z,41.27
2022-10-21T09:15:30.992Z,37.25
2022-10-21T09:18:07.771Z,35.05
2022-10-21T09:20:56.020Z,35.32
2022-10-21T09:23:37.529Z,35.31
2022-10-21T09:26:31.409Z,37.24
2022-10-21T09:29:02.219Z,37.60
2022-10-21T09:31:33.635Z,40.11
2022-10-21T09:34:09.707Z,39.52
2022-10-21T09:36:48.066Z,39.62
2022-10-21T09:39:38.855Z,40.45
2022-10-21T09:42:12.422Z,40.75
2022-10-21T09:44:52.697Z,42.06
2022-10-21T09:47:24.667Z,42.95
2022-10-21T09:50:07.674Z,40.73
2022-10-21T09:52:38.985Z,41.15
2022-10-21T09:55:14.170Z,41.86
2022-10-21T09:57:55.218Z,43.53
2022-10-21T10:00:39.893Z,43.71
2022-10-21T10:03:09.962Z,42.43
2022-10-21T10:05:48.356Z,41.45
2022-10-21T10:08:43.421Z,40.94
2022-10-21T10:11:17.153Z,41.79
2022-10-21T10:13:51.977Z,39.53
2022-10-21T10:16:22.909Z,40.04
2022-10-21T10:18:54.311Z,39.30
2022-10-21T10:21:22.842Z,40.08
2022-10-21T10:23:54.911Z,40.24
2022-10-21T10:26:31.156Z,40.90
2022-10-21T10:29:18.698Z,38.82
2022-10-21T10:31:58.006Z,37.82
2022-10-21T10:34:40.849Z,37.29
2022-10-21T10:37:18.842Z,37.41
2022-10-21T10:39:52.371Z,37.44
2022-10-21T10:42:24.319Z,37.71
2022-10-21T10:44:56.224Z,37.20
2022-10-21T10:47:31.558Z,37.03
2022-10-21T10:49:59.564Z,36.92
2022-10-21T10:52:27.339Z,37.18
2022-10-21T10:55:16.366Z,36.54
2022-10-21T10:57:59.118Z,35.55
2022-10-21T11:00:45.922Z,35.13
2022-10-21T11:03:29.062Z,35.25
2022-10-21T11:06:08.902Z,35.39
2022-10-21T11:08:46.802Z,35.83
2022-10-21T11:11:36.523Z,36.40
2022-10-21T11:14:16.437Z,36.32
2022-10-21T11:17:13.815Z,36.88
2022-10-21T11:19:58.719Z,36.19
2022-10-21T11:22:48.080Z,36.30
2022-10-21T11:25:36.882Z,36.54
2022-10-21T11:28:21.729Z,33.85
2022-10-21T11:31:14.623Z,34.07
2022-10-21T11:34:13.948Z,34.18
2022-10-21T11:37:21.371Z,34.56
2022-10-21T11:40:17.658Z,35.16
2022-10-21T11:42:54.280Z,34.70
2022-10-21T11:45:37.014Z,34.01
2022-10-21T11:48:14.496Z,34.20
2022-10-21T11:51:16.677Z,34.30
2022-10-21T11:54:16.702Z,34.33
2022-10-21T11:57:18.075Z,34.33
2022-10-21T12:00:18.875Z,33.87
2022-10-21T12:03:18.332Z,33.94
2022-10-21T12:06:01.859Z,34.21
2022-10-21T12:08:50.753Z,33.06
2022-10-21T12:11:33.002Z,32.68
2022-10-21T12:14:19.765Z,32.89
2022-10-21T12:16:50.262Z,32.79
2022-10-21T12:19:19.206Z,31.20
2022-10-21T12:21:47.158Z,30.83
2022-10-21T12:24:34.350Z,30.50
2022-10-21T12:27:26.272Z,31.11
2022-10-21T12:30:33.425Z,30.94
2022-10-21T12:33:22.866Z,31.69
2022-10-21T12:35:57.331Z,32.33
2022-10-21T12:38:48.790Z,33.29
2022-10-21T12:41:24.813Z,33.39
2022-10-21T12:44:21.492Z,33.79
2022-10-21T12:46:55.097Z,34.71
2022-10-21T12:49:25.656Z,34.71
2022-10-21T12:52:03.206Z,34.52
2022-10-21T12:54:42.981Z,34.96
2022-10-21T12:57:24.395Z,34.86
2022-10-21T13:00:27.408Z,34.79
2022-10-21T13:03:03.258Z,35.07
2022-10-21T13:05:36.946Z,35.04
2022-10-21T13:08:20.354Z,34.82
2022-10-21T13:11:06.509Z,34.99
2022-10-21T13:13:46.059Z,34.88
2022-10-21T13:16:19.729Z,35.64
2022-10-21T13:18:59.053Z,36.02
2022-10-21T13:21:29.793Z,36.22
2022-10-21T13:24:16.703Z,36.60
2022-10-21T13:27:00.704Z,36.95
2022-10-21T13:29:37.881Z,37.00
2022-10-21T13:32:33.571Z,37.20
2022-10-21T13:35:20.256Z,36.72
2022-10-21T13:38:18.784Z,35.86
2022-10-21T13:40:50.117Z,36.80
2022-10-21T13:43:29.139Z,36.96
2022-10-21T13:46:05.434Z,36.02
2022-10-21T13:48:40.115Z,35.36
2022-10-21T13:51:21.481Z,35.87
2022-10-21T13:53:54.768Z,36.31
2022-10-21T13:56:32.095Z,36.25
2022-10-21T13:59:01.190Z,36.21
2022-10-21T14:01:43.809Z,35.59
2022-10-21T14:04:20.811Z,35.42
2022-10-21T14:06:53.496Z,35.12
2022-10-21T14:09:27.386Z,35.07
2022-10-21T14:12:06.618Z,35.65
2022-10-21T14:14:40.224Z,35.79
2022-10-21T14:17:23.585Z,36.08
2022-10-21T14:19:55.958Z,35.77
2022-10-21T14:22:29.172Z,35.93
2022-10-21T14:25:02.696Z,35.87
2022-10-21T14:27:35.002Z,35.80
2022-10-21T14:30:07.454Z,36.01
2022-10-21T14:32:38.058Z,36.41
2022-10-21T14:35:10.201Z,36.67
2022-10-21T14:37:49.098Z,36.85
2022-10-21T14:40:32.883Z,36.26
2022-10-21T14:43:19.716Z,36.61
2022-10-21T14:45:52.701Z,36.18
2022-10-21T14:48:29.801Z,35.72
2022-10-21T14:51:06.609Z,35.61
2022-10-21T14:53:46.575Z,36.00
2022-10-21T14:56:41.089Z,35.51
2022-10-21T14:59:31.753Z,35.74
2022-10-21T15:02:01.789Z,35.51
2022-10-21T15:04:53.595Z,35.73
2022-10-21T15:07:33.217Z,35.90
2022-10-21T15:10:05.327Z,35.66
2022-10-21T15:12:39.262Z,35.58
2022-10-21T15:15:49.743Z,35.00
2022-10-21T15:18:30.222Z,35.31
2022-10-21T15:21:13.874Z,35.61
2022-10-21T15:24:02.112Z,35.68
2022-10-21T15:26:38.258Z,35.74
2022-10-21T15:29:20.379Z,35.88
2022-10-21T15:31:48.518Z,36.26
2022-10-21T15:34:20.111Z,36.60
2022-10-21T15:36:48.157Z,36.87
2022-10-21T15:39:15.777Z,37.11
2022-10-21T15:41:48.417Z,37.32
2022-10-21T15:44:28.447Z,37.35
2022-10-21T15:47:01.232Z,37.43
2022-10-21T15:49:35.189Z,37.72
2022-10-21T15:52:02.922Z,37.84
2022-10-21T15:54:31.218Z,38.16
2022-10-21T15:57:01.014Z,38.26
2022-10-21T15:59:31.359Z,38.56
2022-10-21T16:02:00.309Z,38.73
2022-10-21T16:04:28.252Z,38.96
2022-10-21T16:06:56.376Z,39.26
2022-10-21T16:09:28.011Z,39.36
2022-10-21T16:12:00.961Z,39.60
2022-10-21T16:14:30.760Z,39.77
2022-10-21T16:16:59.607Z,40.00
2022-10-21T16:19:28.785Z,40.29
2022-10-21T16:21:56.730Z,40.38
2022-10-21T16:24:24.586Z,40.69
2022-10-21T16:26:52.395Z,40.72
2022-10-21T16:29:25.471Z,41.02
2022-10-21T16:31:53.768Z,41.38
2022-10-21T16:34:22.771Z,41.55
2022-10-21T16:36:50.443Z,41.90
2022-10-21T16:39:24.321Z,42.21
2022-10-21T16:41:52.259Z,42.62
2022-10-21T16:44:19.914Z,43.01
2022-10-21T16:46:54.511Z,43.07
2022-10-21T16:49:27.285Z,43.37
2022-10-21T16:51:55.318Z,43.33
2022-10-21T16:54:23.811Z,43.88
2022-10-21T16:56:54.828Z,43.82
2022-10-21T16:59:23.786Z,44.40
2022-10-21T17:01:52.372Z,44.48
2022-10-21T17:04:20.115Z,44.79
2022-10-21T17:06:48.414Z,44.90
2022-10-21T17:09:16.526Z,45.08
2022-10-21T17:11:44.258Z,45.40
2022-10-21T17:14:17.594Z,45.39
2022-10-21T17:16:45.662Z,45.63
2022-10-21T17:19:14.757Z,45.81
2022-10-21T17:21:42.976Z,45.85
2022-10-21T17:24:15.204Z,46.38
2022-10-21T17:26:43.823Z,46.54
2022-10-21T17:29:12.750Z,46.62
2022-10-21T17:31:43.050Z,46.53
2022-10-21T17:34:27.494Z,46.88
2022-10-21T17:36:55.369Z,46.67
2022-10-21T17:39:24.411Z,47.08
2022-10-21T17:41:52.167Z,47.32
2022-10-21T17:44:20.981Z,47.45
2022-10-21T17:46:54.265Z,47.69
2022-10-21T17:49:24.321Z,47.85
2022-10-21T17:51:52.908Z,47.77
2022-10-21T17:54:26.042Z,47.91
2022-10-21T17:56:58.364Z,48.10
2022-10-21T17:59:27.548Z,48.16
2022-10-21T18:01:55.245Z,48.30
2022-10-21T18:04:22.954Z,48.51
2022-10-21T18:06:50.616Z,48.81
2022-10-21T18:09:18.469Z,49.01
2022-10-21T18:11:49.657Z,49.07
2022-10-21T18:14:18.413Z,49.30
2022-10-21T18:16:46.070Z,49.53
2022-10-21T18:19:14.032Z,49.67
2022-10-21T18:21:41.675Z,49.75
2022-10-21T18:24:12.409Z,50.09
2022-10-21T18:26:41.374Z,50.24
2022-10-21T18:29:09.139Z,50.63
2022-10-21T18:31:38.524Z,50.63
2022-10-21T18:34:12.010Z,50.97
2022-10-21T18:36:41.634Z,50.95
2022-10-21T18:39:12.606Z,51.00
2022-10-21T18:41:41.050Z,51.30
2022-10-21T18:44:12.913Z,51.46
2022-10-21T18:46:43.538Z,51.54
2022-10-21T18:49:15.698Z,51.54
2022-10-21T18:51:43.433Z,51.63
2022-10-21T18:54:11.277Z,51.60
2022-10-21T18:56:42.011Z,51.74
2022-10-21T18:59:10.899Z,51.60
2022-10-21T19:01:42.132Z,51.72
2022-10-21T19:04:10.816Z,51.65
2022-10-21T19:06:46.489Z,51.78
2022-10-21T19:09:22.188Z,51.91
2022-10-21T19:11:50.178Z,51.94
2022-10-21T19:14:19.890Z,51.84
2022-10-21T19:16:49.206Z,51.81
2022-10-21T19:19:17.815Z,51.63
2022-10-21T19:21:47.009Z,51.62
2022-10-21T19:24:15.170Z,51.58
2022-10-21T19:26:47.309Z,51.55
2022-10-21T19:29:19.938Z,51.59
2022-10-21T19:31:51.542Z,51.60
2022-10-21T19:34:29.043Z,51.54
2022-10-21T19:36:56.908Z,51.47
2022-10-21T19:39:29.253Z,51.45
2022-10-21T19:42:03.318Z,51.53
2022-10-21T19:44:31.803Z,51.36
2022-10-21T19:47:00.108Z,51.37
2022-10-21T19:49:27.944Z,51.48
2022-10-21T19:51:55.926Z,51.38
2022-10-21T19:54:24.152Z,51.33
2022-10-21T19:56:52.825Z,51.36
2022-10-21T19:59:20.661Z,51.40
2022-10-21T20:01:49.048Z,51.44
2022-10-21T20:04:19.269Z,51.34
2022-10-21T20:06:50.097Z,51.51
2022-10-21T20:09:17.994Z,51.52
2022-10-21T20:11:45.942Z,51.61
2022-10-21T20:14:17.795Z,51.76
2022-10-21T20:16:53.654Z,51.77
2022-10-21T20:19:21.568Z,51.91
2022-10-21T20:21:49.872Z,51.91
2022-10-21T20:24:17.747Z,51.86
2022-10-21T20:26:50.236Z,51.90
2022-10-21T20:29:19.054Z,51.93
2022-10-21T20:31:46.922Z,51.99
2022-10-21T20:34:14.790Z,51.99
2022-10-21T20:36:45.729Z,52.18
2022-10-21T20:39:16.398Z,52.33
2022-10-21T20:41:44.953Z,52.35
2022-10-21T20:44:18.707Z,52.45
2022-10-21T20:46:46.703Z,52.59
2022-10-21T20:49:17.435Z,52.73
2022-10-21T20:51:45.612Z,52.87
2022-10-21T20:54:16.973Z,53.11
2022-10-21T20:56:47.713Z,53.05
2022-10-21T20:59:19.211Z,53.08
2022-10-21T21:01:51.168Z,53.45
2022-10-21T21:04:23.785Z,53.58
2022-10-21T21:06:54.072Z,53.60
2022-10-21T21:12:11.493Z,53.80
2022-10-21T21:14:42.760Z,53.91
2022-10-21T21:17:10.445Z,54.14
2022-10-21T21:19:41.577Z,54.28
2022-10-21T21:22:09.408Z,54.26
2022-10-21T21:24:39.940Z,54.35
2022-10-21T21:27:07.701Z,54.54
2022-10-21T21:29:38.826Z,54.56
2022-10-21T21:32:06.522Z,54.68
2022-10-21T21:34:34.225Z,54.74
2022-10-21T21:37:01.963Z,54.69
2022-10-21T21:39:29.820Z,54.87
2022-10-21T21:41:58.161Z,54.94
2022-10-21T21:44:28.161Z,55.03
2022-10-21T21:46:55.930Z,55.11
2022-10-21T21:49:23.880Z,55.20
2022-10-21T21:51:57.417Z,55.39
2022-10-21T21:54:25.756Z,55.25
2022-10-21T21:57:00.645Z,55.41
2022-10-21T21:59:41.440Z,55.54
2022-10-21T22:02:10.193Z,55.47
2022-10-21T22:04:39.674Z,55.37
2022-10-21T22:07:07.888Z,55.56
2022-10-21T22:09:37.630Z,55.47
2022-10-21T22:12:05.615Z,55.53
2022-10-21T22:14:33.296Z,55.56
2022-10-21T22:17:01.367Z,55.61
2022-10-21T22:19:29.041Z,55.68
2022-10-21T22:21:58.071Z,55.78
2022-10-21T22:24:25.825Z,55.84
2022-10-21T22:26:53.551Z,55.89
2022-10-21T22:29:22.687Z,55.87
2022-10-21T22:31:50.336Z,55.87
2022-10-21T22:34:20.701Z,55.89
2022-10-21T22:36:48.367Z,55.98
2022-10-21T22:39:16.004Z,55.82
2022-10-21T22:41:43.700Z,55.80
2022-10-21T22:44:15.393Z,55.83
2022-10-21T22:46:43.169Z,55.69
2022-10-21T22:49:10.792Z,55.85
2022-10-21T22:51:38.504Z,55.85
2022-10-21T22:54:19.122Z,55.93
2022-10-21T22:56:48.265Z,55.86
2022-10-21T22:59:16.040Z,55.98
2022-10-21T23:01:43.835Z,55.89
2022-10-21T23:04:11.509Z,55.89
2022-10-21T23:06:39.220Z,56.03
2022-10-21T23:09:09.534Z,56.10
2022-10-21T23:11:37.502Z,56.14
2022-10-21T23:14:08.917Z,56.04
2022-10-21T23:16:38.623Z,56.22
2022-10-21T23:19:08.924Z,56.13
2022-10-21T23:21:42.415Z,56.21
2022-10-21T23:24:14.365Z,56.16
2022-10-21T23:26:42.498Z,56.01
2022-10-21T23:29:10.257Z,56.03
2022-10-21T23:31:37.997Z,56.06
2022-10-21T23:34:06.130Z,56.14
2022-10-21T23:36:36.787Z,56.30
2022-10-21T23:39:05.350Z,56.54
2022-10-21T23:41:33.065Z,56.66
2022-10-21T23:44:00.823Z,56.55
2022-10-21T23:46:32.262Z,56.43
2022-10-21T23:48:59.942Z,56.39
2022-10-21T23:51:30.365Z,56.29
2022-10-21T23:53:57.996Z,56.27
2022-10-21T23:56:25.736Z,56.24
2022-10-21T23:59:01.227Z,56.22
